Terminal Aerodrome Forecast
Issued by NWS

Home | Current Version | Previous Version | Text Only | Print | Product List | Glossary On
Versions: 1 2 3 4 5 6 7 8 9 10 11 12 13 14
000
FTUS44 KLIX 262324
TAFHDC
TAF
KHDC 262324Z 2700/2724 14009KT P6SM SKC
     FM270500 13007KT P6SM BKN090
     FM271000 14007KT P6SM OVC030
     FM271100 15008KT P6SM VCSH OVC035
     FM271500 16009KT 6SM SHRA VCTS OVC025CB
     FM271800 18008KT 6SM SHRA VCTS OVC040CB=

USA.gov is the U.S. government's official web portal to all federal, state and local government web resources and services.